sensor_id;sensor_type;location;lat;lon;timestamp;P1;durP1;ratioP1;P2;durP2;ratioP2
22064;SDS011;11197;53.110;8.468;2024-01-15T00:00:23;13.43;;;2.63;;
22064;SDS011;11197;53.110;8.468;2024-01-15T00:02:49;9.20;;;2.20;;
22064;SDS011;11197;53.110;8.468;2024-01-15T00:05:15;9.27;;;1.83;;
22064;SDS011;11197;53.110;8.468;2024-01-15T00:07:41;11.27;;;2.08;;
22064;SDS011;11197;53.110;8.468;2024-01-15T00:10:07;10.95;;;2.20;;
22064;SDS011;11197;53.110;8.468;2024-01-15T00:12:33;8.80;;;2.00;;
22064;SDS011;11197;53.110;8.468;2024-01-15T00:14:59;11.27;;;1.98;;
22064;SDS011;11197;53.110;8.468;2024-01-15T00:17:25;8.70;;;2.05;;
22064;SDS011;11197;53.110;8.468;2024-01-15T00:19:51;12.60;;;2.45;;
22064;SDS011;11197;53.110;8.468;2024-01-15T00:22:17;8.70;;;2.10;;
22064;SDS011;11197;53.110;8.468;2024-01-15T00:24:43;13.48;;;2.47;;
22064;SDS011;11197;53.110;8.468;2024-01-15T00:27:09;16.35;;;2.05;;
22064;SDS011;11197;53.110;8.468;2024-01-15T00:29:35;10.63;;;1.98;;
22064;SDS011;11197;53.110;8.468;2024-01-15T00:32:01;12.98;;;1.98;;
22064;SDS011;11197;53.110;8.468;2024-01-15T00:34:27;11.52;;;2.35;;
22064;SDS011;11197;53.110;8.468;2024-01-15T00:36:53;11.52;;;2.13;;
22064;SDS011;11197;53.110;8.468;2024-01-15T00:39:19;14.10;;;1.65;;
22064;SDS011;11197;53.110;8.468;2024-01-15T00:41:46;9.00;;;1.70;;
22064;SDS011;11197;53.110;8.468;2024-01-15T00:44:12;13.00;;;1.98;;
22064;SDS011;11197;53.110;8.468;2024-01-15T00:46:42;10.32;;;1.70;;
22064;SDS011;11197;53.110;8.468;2024-01-15T00:49:12;10.13;;;1.77;;
22064;SDS011;11197;53.110;8.468;2024-01-15T00:51:38;8.98;;;1.67;;
22064;SDS011;11197;53.110;8.468;2024-01-15T00:54:05;9.20;;;1.38;;
22064;SDS011;11197;53.110;8.468;2024-01-15T00:56:31;12.85;;;1.73;;
22064;SDS011;11197;53.110;8.468;2024-01-15T00:58:57;13.45;;;1.42;;
22064;SDS011;11197;53.110;8.468;2024-01-15T01:01:24;11.13;;;1.50;;
22064;SDS011;11197;53.110;8.468;2024-01-15T01:03:49;9.18;;;1.58;;
22064;SDS011;11197;53.110;8.468;2024-01-15T01:06:15;10.32;;;1.73;;
22064;SDS011;11197;53.110;8.468;2024-01-15T01:08:41;9.43;;;1.35;;
22064;SDS011;11197;53.110;8.468;2024-01-15T01:11:07;5.18;;;1.27;;
22064;SDS011;11197;53.110;8.468;2024-01-15T01:13:37;8.98;;;1.63;;
22064;SDS011;11197;53.110;8.468;2024-01-15T01:16:03;10.35;;;1.92;;
22064;SDS011;11197;53.110;8.468;2024-01-15T01:18:29;9.48;;;1.30;;
22064;SDS011;11197;53.110;8.468;2024-01-15T01:20:56;10.20;;;1.52;;
22064;SDS011;11197;53.110;8.468;2024-01-15T01:23:21;4.15;;;1.20;;
22064;SDS011;11197;53.110;8.468;2024-01-15T01:25:47;8.07;;;1.20;;
22064;SDS011;11197;53.110;8.468;2024-01-15T01:28:13;7.78;;;1.10;;
22064;SDS011;11197;53.110;8.468;2024-01-15T01:30:40;11.13;;;1.60;;
22064;SDS011;11197;53.110;8.468;2024-01-15T01:33:05;7.90;;;1.20;;
22064;SDS011;11197;53.110;8.468;2024-01-15T01:35:31;8.02;;;0.95;;
22064;SDS011;11197;53.110;8.468;2024-01-15T01:37:57;10.48;;;1.40;;
22064;SDS011;11197;53.110;8.468;2024-01-15T01:40:23;8.93;;;1.30;;
22064;SDS011;11197;53.110;8.468;2024-01-15T01:42:49;7.85;;;1.20;;
22064;SDS011;11197;53.110;8.468;2024-01-15T01:45:15;8.45;;;1.40;;
22064;SDS011;11197;53.110;8.468;2024-01-15T01:47:42;8.23;;;1.30;;
22064;SDS011;11197;53.110;8.468;2024-01-15T01:50:08;10.38;;;1.63;;
22064;SDS011;11197;53.110;8.468;2024-01-15T01:52:34;8.55;;;1.30;;
22064;SDS011;11197;53.110;8.468;2024-01-15T01:55:02;9.38;;;1.50;;
22064;SDS011;11197;53.110;8.468;2024-01-15T01:57:29;7.20;;;1.13;;
22064;SDS011;11197;53.110;8.468;2024-01-15T01:59:56;9.55;;;1.38;;
22064;SDS011;11197;53.110;8.468;2024-01-15T02:02:42;9.38;;;1.60;;
22064;SDS011;11197;53.110;8.468;2024-01-15T02:05:09;11.80;;;1.38;;
22064;SDS011;11197;53.110;8.468;2024-01-15T02:07:35;8.77;;;1.30;;
22064;SDS011;11197;53.110;8.468;2024-01-15T02:10:01;12.90;;;1.70;;
22064;SDS011;11197;53.110;8.468;2024-01-15T02:12:28;11.15;;;1.30;;
22064;SDS011;11197;53.110;8.468;2024-01-15T02:14:53;10.73;;;1.50;;
22064;SDS011;11197;53.110;8.468;2024-01-15T02:17:19;13.73;;;1.63;;
22064;SDS011;11197;53.110;8.468;2024-01-15T02:19:45;13.95;;;1.85;;
22064;SDS011;11197;53.110;8.468;2024-01-15T02:22:11;11.43;;;1.40;;
22064;SDS011;11197;53.110;8.468;2024-01-15T02:24:37;6.90;;;1.15;;
22064;SDS011;11197;53.110;8.468;2024-01-15T02:27:03;10.93;;;1.60;;
22064;SDS011;11197;53.110;8.468;2024-01-15T02:29:29;9.23;;;1.50;;
22064;SDS011;11197;53.110;8.468;2024-01-15T02:31:55;7.78;;;1.40;;
22064;SDS011;11197;53.110;8.468;2024-01-15T02:34:21;12.95;;;1.38;;
22064;SDS011;11197;53.110;8.468;2024-01-15T02:36:47;9.45;;;1.40;;
22064;SDS011;11197;53.110;8.468;2024-01-15T02:39:13;9.13;;;1.15;;
22064;SDS011;11197;53.110;8.468;2024-01-15T02:41:39;6.57;;;1.15;;
22064;SDS011;11197;53.110;8.468;2024-01-15T02:44:05;8.25;;;1.10;;
22064;SDS011;11197;53.110;8.468;2024-01-15T02:46:31;10.15;;;1.08;;
22064;SDS011;11197;53.110;8.468;2024-01-15T02:48:57;11.80;;;1.55;;
22064;SDS011;11197;53.110;8.468;2024-01-15T02:51:23;7.18;;;1.00;;
22064;SDS011;11197;53.110;8.468;2024-01-15T02:53:49;6.82;;;1.05;;
22064;SDS011;11197;53.110;8.468;2024-01-15T02:56:15;11.25;;;1.20;;
22064;SDS011;11197;53.110;8.468;2024-01-15T02:58:41;7.70;;;1.23;;
22064;SDS011;11197;53.110;8.468;2024-01-15T03:01:07;6.88;;;1.00;;
22064;SDS011;11197;53.110;8.468;2024-01-15T03:03:34;11.48;;;1.17;;
22064;SDS011;11197;53.110;8.468;2024-01-15T03:06:01;7.00;;;1.15;;
22064;SDS011;11197;53.110;8.468;2024-01-15T03:08:27;6.97;;;0.98;;
22064;SDS011;11197;53.110;8.468;2024-01-15T03:10:54;6.95;;;0.90;;
22064;SDS011;11197;53.110;8.468;2024-01-15T03:13:20;10.98;;;1.17;;
22064;SDS011;11197;53.110;8.468;2024-01-15T03:15:46;7.60;;;0.98;;
22064;SDS011;11197;53.110;8.468;2024-01-15T03:18:12;6.32;;;1.00;;
22064;SDS011;11197;53.110;8.468;2024-01-15T03:20:38;7.82;;;1.15;;
22064;SDS011;11197;53.110;8.468;2024-01-15T03:23:04;8.63;;;1.10;;
22064;SDS011;11197;53.110;8.468;2024-01-15T03:25:30;6.97;;;1.27;;
22064;SDS011;11197;53.110;8.468;2024-01-15T03:27:56;9.48;;;1.20;;
22064;SDS011;11197;53.110;8.468;2024-01-15T03:30:22;8.50;;;1.42;;
22064;SDS011;11197;53.110;8.468;2024-01-15T03:32:48;9.38;;;1.40;;
22064;SDS011;11197;53.110;8.468;2024-01-15T03:35:15;7.53;;;1.10;;
22064;SDS011;11197;53.110;8.468;2024-01-15T03:37:42;6.55;;;1.13;;
22064;SDS011;11197;53.110;8.468;2024-01-15T03:40:08;4.38;;;1.00;;
22064;SDS011;11197;53.110;8.468;2024-01-15T03:42:34;7.93;;;1.50;;
22064;SDS011;11197;53.110;8.468;2024-01-15T03:45:00;6.90;;;1.60;;
22064;SDS011;11197;53.110;8.468;2024-01-15T03:47:26;8.88;;;1.23;;
22064;SDS011;11197;53.110;8.468;2024-01-15T03:49:52;8.07;;;1.13;;
22064;SDS011;11197;53.110;8.468;2024-01-15T03:52:18;7.55;;;1.10;;
22064;SDS011;11197;53.110;8.468;2024-01-15T03:54:43;11.13;;;1.30;;
22064;SDS011;11197;53.110;8.468;2024-01-15T03:57:09;8.68;;;1.35;;
22064;SDS011;11197;53.110;8.468;2024-01-15T03:59:35;7.53;;;1.00;;
22064;SDS011;11197;53.110;8.468;2024-01-15T04:02:01;11.65;;;1.55;;
22064;SDS011;11197;53.110;8.468;2024-01-15T04:04:27;9.95;;;1.40;;
22064;SDS011;11197;53.110;8.468;2024-01-15T04:06:53;8.85;;;1.00;;
22064;SDS011;11197;53.110;8.468;2024-01-15T04:09:19;10.20;;;1.60;;
22064;SDS011;11197;53.110;8.468;2024-01-15T04:11:46;10.95;;;1.33;;
22064;SDS011;11197;53.110;8.468;2024-01-15T04:14:39;6.28;;;1.00;;
22064;SDS011;11197;53.110;8.468;2024-01-15T04:17:05;10.45;;;1.40;;
22064;SDS011;11197;53.110;8.468;2024-01-15T04:19:31;13.10;;;1.70;;
22064;SDS011;11197;53.110;8.468;2024-01-15T04:21:57;7.70;;;1.17;;
22064;SDS011;11197;53.110;8.468;2024-01-15T04:24:23;8.10;;;1.13;;
22064;SDS011;11197;53.110;8.468;2024-01-15T04:26:49;10.98;;;1.42;;
22064;SDS011;11197;53.110;8.468;2024-01-15T04:29:15;12.85;;;1.23;;
22064;SDS011;11197;53.110;8.468;2024-01-15T04:31:41;13.65;;;1.58;;
22064;SDS011;11197;53.110;8.468;2024-01-15T04:34:07;9.60;;;1.35;;
22064;SDS011;11197;53.110;8.468;2024-01-15T04:36:38;10.27;;;1.23;;
22064;SDS011;11197;53.110;8.468;2024-01-15T04:39:05;13.75;;;1.55;;
22064;SDS011;11197;53.110;8.468;2024-01-15T04:41:31;13.18;;;1.42;;
22064;SDS011;11197;53.110;8.468;2024-01-15T04:43:57;9.70;;;1.58;;
22064;SDS011;11197;53.110;8.468;2024-01-15T04:46:23;9.35;;;1.25;;
22064;SDS011;11197;53.110;8.468;2024-01-15T04:48:49;12.07;;;1.42;;
22064;SDS011;11197;53.110;8.468;2024-01-15T04:51:14;9.13;;;1.30;;
22064;SDS011;11197;53.110;8.468;2024-01-15T04:53:41;10.02;;;1.50;;
22064;SDS011;11197;53.110;8.468;2024-01-15T04:56:07;5.95;;;1.10;;
22064;SDS011;11197;53.110;8.468;2024-01-15T04:58:33;11.02;;;1.50;;
22064;SDS011;11197;53.110;8.468;2024-01-15T05:00:59;13.70;;;1.92;;
22064;SDS011;11197;53.110;8.468;2024-01-15T05:03:24;10.23;;;1.40;;
22064;SDS011;11197;53.110;8.468;2024-01-15T05:05:50;9.65;;;1.55;;
22064;SDS011;11197;53.110;8.468;2024-01-15T05:08:16;11.23;;;1.77;;
22064;SDS011;11197;53.110;8.468;2024-01-15T05:10:42;10.57;;;1.80;;
22064;SDS011;11197;53.110;8.468;2024-01-15T05:13:08;11.77;;;1.77;;
22064;SDS011;11197;53.110;8.468;2024-01-15T05:15:34;12.82;;;1.85;;
22064;SDS011;11197;53.110;8.468;2024-01-15T05:18:00;9.27;;;1.83;;
22064;SDS011;11197;53.110;8.468;2024-01-15T05:20:26;17.70;;;2.50;;
22064;SDS011;11197;53.110;8.468;2024-01-15T05:22:52;16.40;;;3.45;;
22064;SDS011;11197;53.110;8.468;2024-01-15T05:25:18;11.93;;;2.03;;
22064;SDS011;11197;53.110;8.468;2024-01-15T05:27:44;11.68;;;2.88;;
22064;SDS011;11197;53.110;8.468;2024-01-15T05:30:10;12.60;;;2.53;;
22064;SDS011;11197;53.110;8.468;2024-01-15T05:32:36;14.18;;;2.33;;
22064;SDS011;11197;53.110;8.468;2024-01-15T05:35:02;13.88;;;2.10;;
22064;SDS011;11197;53.110;8.468;2024-01-15T05:37:29;7.80;;;1.75;;
22064;SDS011;11197;53.110;8.468;2024-01-15T05:39:54;12.00;;;1.65;;
22064;SDS011;11197;53.110;8.468;2024-01-15T05:42:20;10.27;;;1.42;;
22064;SDS011;11197;53.110;8.468;2024-01-15T05:44:46;11.10;;;1.88;;
22064;SDS011;11197;53.110;8.468;2024-01-15T05:47:12;14.90;;;1.63;;
22064;SDS011;11197;53.110;8.468;2024-01-15T05:49:38;13.35;;;1.58;;
22064;SDS011;11197;53.110;8.468;2024-01-15T05:52:04;12.35;;;1.50;;
22064;SDS011;11197;53.110;8.468;2024-01-15T05:54:30;18.17;;;2.00;;
22064;SDS011;11197;53.110;8.468;2024-01-15T05:56:56;10.27;;;1.77;;
22064;SDS011;11197;53.110;8.468;2024-01-15T05:59:22;11.68;;;1.77;;
22064;SDS011;11197;53.110;8.468;2024-01-15T06:01:48;13.63;;;1.92;;
22064;SDS011;11197;53.110;8.468;2024-01-15T06:04:14;11.60;;;1.77;;
22064;SDS011;11197;53.110;8.468;2024-01-15T06:06:40;8.77;;;1.52;;
22064;SDS011;11197;53.110;8.468;2024-01-15T06:09:05;7.80;;;1.42;;
22064;SDS011;11197;53.110;8.468;2024-01-15T06:11:31;12.38;;;1.83;;
22064;SDS011;11197;53.110;8.468;2024-01-15T06:13:58;12.95;;;1.90;;
22064;SDS011;11197;53.110;8.468;2024-01-15T06:16:25;9.02;;;1.50;;
22064;SDS011;11197;53.110;8.468;2024-01-15T06:18:51;7.55;;;1.55;;
22064;SDS011;11197;53.110;8.468;2024-01-15T06:21:17;14.38;;;2.17;;
22064;SDS011;11197;53.110;8.468;2024-01-15T06:23:43;8.27;;;1.90;;
22064;SDS011;11197;53.110;8.468;2024-01-15T06:26:11;6.40;;;1.60;;
22064;SDS011;11197;53.110;8.468;2024-01-15T06:28:37;10.68;;;1.35;;
22064;SDS011;11197;53.110;8.468;2024-01-15T06:31:03;6.00;;;1.10;;
22064;SDS011;11197;53.110;8.468;2024-01-15T06:33:30;7.40;;;1.15;;
22064;SDS011;11197;53.110;8.468;2024-01-15T06:35:56;5.32;;;1.20;;
22064;SDS011;11197;53.110;8.468;2024-01-15T06:38:22;8.43;;;1.30;;
22064;SDS011;11197;53.110;8.468;2024-01-15T06:40:50;6.57;;;1.48;;
22064;SDS011;11197;53.110;8.468;2024-01-15T06:43:17;5.63;;;1.20;;
22064;SDS011;11197;53.110;8.468;2024-01-15T06:45:43;5.70;;;1.20;;
22064;SDS011;11197;53.110;8.468;2024-01-15T06:48:09;8.20;;;1.42;;
22064;SDS011;11197;53.110;8.468;2024-01-15T06:50:37;9.55;;;1.20;;
22064;SDS011;11197;53.110;8.468;2024-01-15T06:53:03;9.07;;;1.50;;
22064;SDS011;11197;53.110;8.468;2024-01-15T06:55:29;7.13;;;1.10;;
22064;SDS011;11197;53.110;8.468;2024-01-15T06:57:55;7.10;;;1.33;;
22064;SDS011;11197;53.110;8.468;2024-01-15T07:00:20;12.60;;;1.30;;
22064;SDS011;11197;53.110;8.468;2024-01-15T07:02:46;9.57;;;1.65;;
22064;SDS011;11197;53.110;8.468;2024-01-15T07:05:12;16.58;;;1.60;;
22064;SDS011;11197;53.110;8.468;2024-01-15T07:07:38;13.27;;;1.60;;
22064;SDS011;11197;53.110;8.468;2024-01-15T07:10:05;13.27;;;1.50;;
22064;SDS011;11197;53.110;8.468;2024-01-15T07:12:31;6.28;;;1.10;;
22064;SDS011;11197;53.110;8.468;2024-01-15T07:14:57;10.55;;;1.63;;
22064;SDS011;11197;53.110;8.468;2024-01-15T07:17:22;8.13;;;1.40;;
22064;SDS011;11197;53.110;8.468;2024-01-15T07:19:48;8.45;;;1.40;;
22064;SDS011;11197;53.110;8.468;2024-01-15T07:22:15;9.55;;;1.50;;
22064;SDS011;11197;53.110;8.468;2024-01-15T07:24:42;8.32;;;1.40;;
22064;SDS011;11197;53.110;8.468;2024-01-15T07:27:09;12.27;;;1.45;;
22064;SDS011;11197;53.110;8.468;2024-01-15T07:29:35;7.60;;;1.40;;
22064;SDS011;11197;53.110;8.468;2024-01-15T07:32:04;12.80;;;1.70;;
22064;SDS011;11197;53.110;8.468;2024-01-15T07:34:30;10.88;;;1.50;;
22064;SDS011;11197;53.110;8.468;2024-01-15T07:36:57;6.47;;;1.20;;
22064;SDS011;11197;53.110;8.468;2024-01-15T07:39:23;6.05;;;1.00;;
22064;SDS011;11197;53.110;8.468;2024-01-15T07:41:50;8.60;;;1.00;;
22064;SDS011;11197;53.110;8.468;2024-01-15T07:44:16;10.63;;;1.10;;
22064;SDS011;11197;53.110;8.468;2024-01-15T07:46:45;12.52;;;1.25;;
22064;SDS011;11197;53.110;8.468;2024-01-15T07:49:12;28.17;;;3.20;;
22064;SDS011;11197;53.110;8.468;2024-01-15T07:51:38;17.05;;;1.50;;
22064;SDS011;11197;53.110;8.468;2024-01-15T07:54:05;9.18;;;1.00;;
22064;SDS011;11197;53.110;8.468;2024-01-15T07:56:32;7.70;;;1.00;;
22064;SDS011;11197;53.110;8.468;2024-01-15T07:58:58;5.50;;;1.05;;
22064;SDS011;11197;53.110;8.468;2024-01-15T08:01:24;7.70;;;1.25;;
22064;SDS011;11197;53.110;8.468;2024-01-15T08:03:50;3.83;;;0.88;;
22064;SDS011;11197;53.110;8.468;2024-01-15T08:06:17;4.68;;;0.93;;
22064;SDS011;11197;53.110;8.468;2024-01-15T08:08:43;8.13;;;1.17;;
22064;SDS011;11197;53.110;8.468;2024-01-15T08:11:08;7.68;;;0.88;;
22064;SDS011;11197;53.110;8.468;2024-01-15T08:13:34;7.32;;;0.90;;
22064;SDS011;11197;53.110;8.468;2024-01-15T08:16:00;6.95;;;0.98;;
22064;SDS011;11197;53.110;8.468;2024-01-15T08:18:27;10.07;;;1.20;;
22064;SDS011;11197;53.110;8.468;2024-01-15T08:20:52;6.75;;;1.10;;
22064;SDS011;11197;53.110;8.468;2024-01-15T08:23:19;7.55;;;0.90;;
22064;SDS011;11197;53.110;8.468;2024-01-15T08:25:45;8.05;;;1.00;;
22064;SDS011;11197;53.110;8.468;2024-01-15T08:28:11;12.43;;;1.40;;
22064;SDS011;11197;53.110;8.468;2024-01-15T08:30:36;9.70;;;1.23;;
22064;SDS011;11197;53.110;8.468;2024-01-15T08:33:02;9.45;;;1.50;;
22064;SDS011;11197;53.110;8.468;2024-01-15T08:35:28;8.68;;;1.50;;
22064;SDS011;11197;53.110;8.468;2024-01-15T08:37:54;8.27;;;1.52;;
22064;SDS011;11197;53.110;8.468;2024-01-15T08:40:20;7.55;;;1.17;;
22064;SDS011;11197;53.110;8.468;2024-01-15T08:42:46;9.75;;;1.52;;
22064;SDS011;11197;53.110;8.468;2024-01-15T08:45:12;6.95;;;1.40;;
22064;SDS011;11197;53.110;8.468;2024-01-15T08:47:38;9.18;;;1.52;;
22064;SDS011;11197;53.110;8.468;2024-01-15T08:50:04;11.52;;;1.63;;
22064;SDS011;11197;53.110;8.468;2024-01-15T08:52:30;6.57;;;1.00;;
22064;SDS011;11197;53.110;8.468;2024-01-15T08:54:56;12.27;;;1.88;;
22064;SDS011;11197;53.110;8.468;2024-01-15T08:57:22;7.72;;;1.13;;
22064;SDS011;11197;53.110;8.468;2024-01-15T08:59:48;11.57;;;1.20;;
22064;SDS011;11197;53.110;8.468;2024-01-15T09:02:14;7.82;;;1.15;;
22064;SDS011;11197;53.110;8.468;2024-01-15T09:04:40;7.05;;;1.20;;
22064;SDS011;11197;53.110;8.468;2024-01-15T09:07:09;6.47;;;1.10;;
22064;SDS011;11197;53.110;8.468;2024-01-15T09:09:35;8.77;;;1.10;;
22064;SDS011;11197;53.110;8.468;2024-01-15T09:12:01;7.75;;;1.25;;
22064;SDS011;11197;53.110;8.468;2024-01-15T09:14:27;7.20;;;1.40;;
22064;SDS011;11197;53.110;8.468;2024-01-15T09:16:54;6.75;;;1.10;;
22064;SDS011;11197;53.110;8.468;2024-01-15T09:19:20;7.95;;;1.30;;
22064;SDS011;11197;53.110;8.468;2024-01-15T09:21:46;6.30;;;1.42;;
22064;SDS011;11197;53.110;8.468;2024-01-15T09:24:11;8.98;;;1.50;;
22064;SDS011;11197;53.110;8.468;2024-01-15T09:26:37;5.40;;;1.15;;
22064;SDS011;11197;53.110;8.468;2024-01-15T09:29:03;6.70;;;1.27;;
22064;SDS011;11197;53.110;8.468;2024-01-15T09:31:29;6.07;;;1.10;;
22064;SDS011;11197;53.110;8.468;2024-01-15T09:33:55;10.15;;;1.40;;
22064;SDS011;11197;53.110;8.468;2024-01-15T09:36:25;14.23;;;1.85;;
22064;SDS011;11197;53.110;8.468;2024-01-15T09:38:52;7.32;;;1.20;;
22064;SDS011;11197;53.110;8.468;2024-01-15T09:41:17;8.70;;;1.33;;
22064;SDS011;11197;53.110;8.468;2024-01-15T09:43:43;5.00;;;1.20;;
22064;SDS011;11197;53.110;8.468;2024-01-15T09:46:10;5.03;;;1.40;;
22064;SDS011;11197;53.110;8.468;2024-01-15T09:48:37;8.07;;;1.73;;
22064;SDS011;11197;53.110;8.468;2024-01-15T09:51:04;6.38;;;1.40;;
22064;SDS011;11197;53.110;8.468;2024-01-15T09:53:32;9.68;;;1.45;;
22064;SDS011;11197;53.110;8.468;2024-01-15T09:55:59;7.32;;;1.15;;
22064;SDS011;11197;53.110;8.468;2024-01-15T09:58:25;6.32;;;1.10;;
22064;SDS011;11197;53.110;8.468;2024-01-15T10:00:52;8.27;;;1.35;;
22064;SDS011;11197;53.110;8.468;2024-01-15T10:03:19;6.82;;;1.30;;
22064;SDS011;11197;53.110;8.468;2024-01-15T10:05:46;7.43;;;1.48;;
22064;SDS011;11197;53.110;8.468;2024-01-15T10:08:12;8.82;;;1.73;;
22064;SDS011;11197;53.110;8.468;2024-01-15T10:10:39;6.10;;;1.38;;
22064;SDS011;11197;53.110;8.468;2024-01-15T10:13:06;9.63;;;1.83;;
22064;SDS011;11197;53.110;8.468;2024-01-15T10:15:35;10.70;;;1.60;;
22064;SDS011;11197;53.110;8.468;2024-01-15T10:18:03;6.50;;;2.15;;
22064;SDS011;11197;53.110;8.468;2024-01-15T10:20:29;8.35;;;1.40;;
22064;SDS011;11197;53.110;8.468;2024-01-15T10:22:58;10.20;;;1.42;;
22064;SDS011;11197;53.110;8.468;2024-01-15T10:25:24;9.93;;;1.52;;
22064;SDS011;11197;53.110;8.468;2024-01-15T10:28:03;7.63;;;1.58;;
22064;SDS011;11197;53.110;8.468;2024-01-15T10:30:30;7.05;;;1.40;;
22064;SDS011;11197;53.110;8.468;2024-01-15T10:33:03;13.75;;;1.73;;
22064;SDS011;11197;53.110;8.468;2024-01-15T10:35:30;9.23;;;1.70;;
22064;SDS011;11197;53.110;8.468;2024-01-15T10:37:58;9.02;;;1.60;;
22064;SDS011;11197;53.110;8.468;2024-01-15T10:40:24;9.95;;;1.80;;
22064;SDS011;11197;53.110;8.468;2024-01-15T10:42:50;8.95;;;1.77;;
22064;SDS011;11197;53.110;8.468;2024-01-15T10:45:16;8.88;;;1.40;;
22064;SDS011;11197;53.110;8.468;2024-01-15T10:47:43;10.05;;;1.50;;
22064;SDS011;11197;53.110;8.468;2024-01-15T10:50:09;11.00;;;1.58;;
22064;SDS011;11197;53.110;8.468;2024-01-15T10:52:39;6.10;;;1.30;;
22064;SDS011;11197;53.110;8.468;2024-01-15T10:55:09;10.32;;;1.48;;
22064;SDS011;11197;53.110;8.468;2024-01-15T10:57:36;6.10;;;1.42;;
22064;SDS011;11197;53.110;8.468;2024-01-15T11:00:03;7.05;;;1.42;;
22064;SDS011;11197;53.110;8.468;2024-01-15T11:02:34;6.05;;;1.00;;
22064;SDS011;11197;53.110;8.468;2024-01-15T11:05:01;10.43;;;1.45;;
22064;SDS011;11197;53.110;8.468;2024-01-15T11:07:27;7.50;;;1.30;;
22064;SDS011;11197;53.110;8.468;2024-01-15T11:09:56;6.25;;;1.20;;
22064;SDS011;11197;53.110;8.468;2024-01-15T11:12:24;5.45;;;1.30;;
22064;SDS011;11197;53.110;8.468;2024-01-15T11:14:50;6.50;;;1.27;;
22064;SDS011;11197;53.110;8.468;2024-01-15T11:17:16;4.68;;;1.05;;
22064;SDS011;11197;53.110;8.468;2024-01-15T11:19:44;4.80;;;1.27;;
22064;SDS011;11197;53.110;8.468;2024-01-15T11:22:48;4.60;;;1.00;;
22064;SDS011;11197;53.110;8.468;2024-01-15T11:25:01;5.15;;;1.05;;
22064;SDS011;11197;53.110;8.468;2024-01-15T11:27:45;6.10;;;1.17;;
22064;SDS011;11197;53.110;8.468;2024-01-15T11:30:13;3.28;;;1.10;;
22064;SDS011;11197;53.110;8.468;2024-01-15T11:32:39;6.63;;;1.33;;
22064;SDS011;11197;53.110;8.468;2024-01-15T11:35:06;5.18;;;1.25;;
22064;SDS011;11197;53.110;8.468;2024-01-15T11:43:03;6.53;;;1.40;;
22064;SDS011;11197;53.110;8.468;2024-01-15T11:45:31;5.13;;;1.23;;
22064;SDS011;11197;53.110;8.468;2024-01-15T11:50:44;6.35;;;0.90;;
22064;SDS011;11197;53.110;8.468;2024-01-15T11:55:44;7.75;;;1.35;;
22064;SDS011;11197;53.110;8.468;2024-01-15T11:58:11;8.85;;;1.30;;
22064;SDS011;11197;53.110;8.468;2024-01-15T12:00:40;4.60;;;1.00;;
22064;SDS011;11197;53.110;8.468;2024-01-15T12:05:36;5.82;;;0.80;;
22064;SDS011;11197;53.110;8.468;2024-01-15T12:08:07;6.70;;;1.20;;
22064;SDS011;11197;53.110;8.468;2024-01-15T12:10:39;6.53;;;2.25;;
22064;SDS011;11197;53.110;8.468;2024-01-15T12:15:42;11.77;;;4.10;;
22064;SDS011;11197;53.110;8.468;2024-01-15T12:18:10;10.90;;;4.82;;
22064;SDS011;11197;53.110;8.468;2024-01-15T12:20:43;7.80;;;3.00;;
22064;SDS011;11197;53.110;8.468;2024-01-15T12:23:12;7.10;;;3.28;;
22064;SDS011;11197;53.110;8.468;2024-01-15T12:25:41;7.03;;;2.47;;
22064;SDS011;11197;53.110;8.468;2024-01-15T12:28:07;5.32;;;2.05;;
22064;SDS011;11197;53.110;8.468;2024-01-15T12:30:34;7.90;;;2.22;;
22064;SDS011;11197;53.110;8.468;2024-01-15T12:33:01;7.05;;;1.95;;
22064;SDS011;11197;53.110;8.468;2024-01-15T12:35:29;10.50;;;2.25;;
22064;SDS011;11197;53.110;8.468;2024-01-15T12:37:55;9.07;;;2.08;;
22064;SDS011;11197;53.110;8.468;2024-01-15T12:40:21;8.77;;;2.47;;
22064;SDS011;11197;53.110;8.468;2024-01-15T12:42:48;5.97;;;1.88;;
22064;SDS011;11197;53.110;8.468;2024-01-15T12:45:14;7.97;;;1.95;;
22064;SDS011;11197;53.110;8.468;2024-01-15T12:47:41;9.70;;;1.50;;
22064;SDS011;11197;53.110;8.468;2024-01-15T12:50:08;6.95;;;1.83;;
22064;SDS011;11197;53.110;8.468;2024-01-15T12:52:35;6.95;;;1.63;;
22064;SDS011;11197;53.110;8.468;2024-01-15T12:55:04;5.82;;;1.50;;
22064;SDS011;11197;53.110;8.468;2024-01-15T12:57:30;5.88;;;1.33;;
22064;SDS011;11197;53.110;8.468;2024-01-15T12:59:56;5.93;;;1.33;;
22064;SDS011;11197;53.110;8.468;2024-01-15T13:02:22;3.05;;;1.00;;
22064;SDS011;11197;53.110;8.468;2024-01-15T13:04:48;4.93;;;1.15;;
22064;SDS011;11197;53.110;8.468;2024-01-15T13:07:14;5.13;;;1.20;;
22064;SDS011;11197;53.110;8.468;2024-01-15T13:09:40;7.80;;;1.40;;
22064;SDS011;11197;53.110;8.468;2024-01-15T13:12:06;5.25;;;1.40;;
22064;SDS011;11197;53.110;8.468;2024-01-15T13:14:32;7.00;;;1.30;;
22064;SDS011;11197;53.110;8.468;2024-01-15T13:16:58;4.32;;;1.10;;
22064;SDS011;11197;53.110;8.468;2024-01-15T13:19:24;3.38;;;1.30;;
22064;SDS011;11197;53.110;8.468;2024-01-15T13:21:51;4.22;;;1.17;;
22064;SDS011;11197;53.110;8.468;2024-01-15T13:24:18;5.88;;;1.30;;
22064;SDS011;11197;53.110;8.468;2024-01-15T13:26:44;5.35;;;1.25;;
22064;SDS011;11197;53.110;8.468;2024-01-15T13:29:10;5.05;;;1.77;;
22064;SDS011;11197;53.110;8.468;2024-01-15T13:31:36;3.03;;;1.40;;
22064;SDS011;11197;53.110;8.468;2024-01-15T13:34:03;4.40;;;1.17;;
22064;SDS011;11197;53.110;8.468;2024-01-15T13:36:29;4.30;;;1.30;;
22064;SDS011;11197;53.110;8.468;2024-01-15T13:38:55;2.22;;;1.05;;
22064;SDS011;11197;53.110;8.468;2024-01-15T13:41:21;3.90;;;1.50;;
22064;SDS011;11197;53.110;8.468;2024-01-15T13:43:50;4.00;;;1.30;;
22064;SDS011;11197;53.110;8.468;2024-01-15T13:46:18;2.88;;;1.27;;
22064;SDS011;11197;53.110;8.468;2024-01-15T13:48:45;2.42;;;1.10;;
22064;SDS011;11197;53.110;8.468;2024-01-15T13:51:11;3.08;;;1.50;;
22064;SDS011;11197;53.110;8.468;2024-01-15T13:53:40;4.28;;;1.85;;
22064;SDS011;11197;53.110;8.468;2024-01-15T13:56:06;5.38;;;1.60;;
22064;SDS011;11197;53.110;8.468;2024-01-15T13:58:33;4.80;;;1.52;;
22064;SDS011;11197;53.110;8.468;2024-01-15T14:01:00;4.97;;;1.70;;
22064;SDS011;11197;53.110;8.468;2024-01-15T14:03:26;2.83;;;1.30;;
22064;SDS011;11197;53.110;8.468;2024-01-15T14:05:52;6.13;;;1.58;;
22064;SDS011;11197;53.110;8.468;2024-01-15T14:08:18;3.92;;;1.48;;
22064;SDS011;11197;53.110;8.468;2024-01-15T14:10:44;4.93;;;1.50;;
22064;SDS011;11197;53.110;8.468;2024-01-15T14:13:10;4.32;;;1.60;;
22064;SDS011;11197;53.110;8.468;2024-01-15T14:15:36;5.32;;;1.30;;
22064;SDS011;11197;53.110;8.468;2024-01-15T14:18:02;3.92;;;1.30;;
22064;SDS011;11197;53.110;8.468;2024-01-15T14:20:28;4.47;;;1.52;;
22064;SDS011;11197;53.110;8.468;2024-01-15T14:22:54;4.85;;;1.77;;
22064;SDS011;11197;53.110;8.468;2024-01-15T14:25:20;6.13;;;1.70;;
22064;SDS011;11197;53.110;8.468;2024-01-15T14:27:46;4.88;;;1.70;;
22064;SDS011;11197;53.110;8.468;2024-01-15T14:30:13;3.38;;;1.40;;
22064;SDS011;11197;53.110;8.468;2024-01-15T14:32:41;2.55;;;1.42;;
22064;SDS011;11197;53.110;8.468;2024-01-15T14:35:07;4.85;;;1.60;;
22064;SDS011;11197;53.110;8.468;2024-01-15T14:37:38;4.25;;;1.67;;
22064;SDS011;11197;53.110;8.468;2024-01-15T14:40:05;3.95;;;1.80;;
22064;SDS011;11197;53.110;8.468;2024-01-15T14:42:36;4.38;;;2.00;;
22064;SDS011;11197;53.110;8.468;2024-01-15T14:45:02;5.72;;;2.15;;
22064;SDS011;11197;53.110;8.468;2024-01-15T14:47:33;5.72;;;2.53;;
22064;SDS011;11197;53.110;8.468;2024-01-15T14:50:00;7.78;;;2.42;;
22064;SDS011;11197;53.110;8.468;2024-01-15T14:52:26;5.75;;;2.42;;
22064;SDS011;11197;53.110;8.468;2024-01-15T14:54:52;4.75;;;2.25;;